createdAt,value
2018-12-04T00:01:37.979Z,12.49
2018-12-04T00:04:42.042Z,12.44
2018-12-04T00:07:46.115Z,12.42
2018-12-04T00:10:50.174Z,12.37
2018-12-04T00:13:54.244Z,12.26
2018-12-04T00:16:58.301Z,12.33
2018-12-04T00:20:02.397Z,12.35
2018-12-04T00:23:06.473Z,12.23
2018-12-04T00:26:10.528Z,12.13
2018-12-04T00:29:14.614Z,12.12
2018-12-04T00:32:18.683Z,12.24
2018-12-04T00:36:06.503Z,12.37
2018-12-04T00:39:10.671Z,12.22
2018-12-04T00:42:14.738Z,12.17
2018-12-04T00:45:18.903Z,12.09
2018-12-04T00:48:22.996Z,12.02
2018-12-04T00:51:27.084Z,11.98
2018-12-04T00:54:31.246Z,11.76
2018-12-04T00:57:35.373Z,11.64
2018-12-04T01:00:39.502Z,11.79
2018-12-04T01:03:43.589Z,11.90
2018-12-04T01:06:47.710Z,11.93
2018-12-04T01:09:51.834Z,12.00
2018-12-04T01:12:55.926Z,12.00
2018-12-04T01:16:00.034Z,11.97
2018-12-04T01:19:04.167Z,11.95
2018-12-04T01:22:08.283Z,11.94
2018-12-04T01:25:12.359Z,11.98
2018-12-04T01:28:16.524Z,12.02
2018-12-04T01:31:20.640Z,11.94
2018-12-04T01:34:24.862Z,11.94
2018-12-04T01:37:28.945Z,11.99
2018-12-04T01:40:33.095Z,12.00
2018-12-04T01:43:37.246Z,11.79
2018-12-04T01:46:41.436Z,11.76
2018-12-04T01:49:45.522Z,11.83
2018-12-04T01:52:49.621Z,11.80
2018-12-04T01:55:53.777Z,11.68
2018-12-04T01:58:57.866Z,11.60
2018-12-04T02:02:01.998Z,11.56
2018-12-04T02:05:06.168Z,11.49
2018-12-04T02:08:10.232Z,11.41
2018-12-04T02:11:14.313Z,11.34
2018-12-04T02:14:18.465Z,11.43
2018-12-04T02:17:22.698Z,11.50
2018-12-04T02:20:26.902Z,11.61
2018-12-04T02:23:31.019Z,11.47
2018-12-04T02:26:35.115Z,11.36
2018-12-04T02:29:39.347Z,11.40
2018-12-04T02:32:43.476Z,11.37
2018-12-04T02:35:47.525Z,11.36
2018-12-04T02:38:51.606Z,11.48
2018-12-04T02:41:55.759Z,11.45
2018-12-04T02:44:59.826Z,11.41
2018-12-04T02:48:04.054Z,11.43
2018-12-04T02:51:08.135Z,11.52
2018-12-04T02:54:12.286Z,11.53
2018-12-04T02:57:16.373Z,11.57
2018-12-04T03:00:20.519Z,11.68
2018-12-04T03:03:24.615Z,11.79
2018-12-04T03:06:28.691Z,11.83
2018-12-04T03:09:32.833Z,11.93
2018-12-04T03:12:36.930Z,12.00
2018-12-04T03:15:41.050Z,12.13
2018-12-04T03:18:45.202Z,12.08
2018-12-04T03:21:49.314Z,12.02
2018-12-04T03:24:53.642Z,11.96
2018-12-04T03:27:57.787Z,11.86
2018-12-04T03:31:03.923Z,11.77
2018-12-04T03:34:08.005Z,11.79
2018-12-04T03:37:12.091Z,11.75
2018-12-04T03:40:16.180Z,11.78
2018-12-04T03:43:20.556Z,11.83
2018-12-04T03:46:24.644Z,11.95
2018-12-04T03:49:28.829Z,11.91
2018-12-04T03:52:33.036Z,11.88
2018-12-04T03:55:37.117Z,11.96
2018-12-04T03:58:41.249Z,12.12
2018-12-04T04:01:45.389Z,12.20
2018-12-04T04:04:49.512Z,12.08
2018-12-04T04:07:53.538Z,12.08
2018-12-04T04:10:57.681Z,12.11
2018-12-04T04:14:01.818Z,12.07
2018-12-04T04:17:05.910Z,11.99
2018-12-04T04:20:10.041Z,12.03
2018-12-04T04:23:14.130Z,12.11
2018-12-04T04:26:18.287Z,12.17
2018-12-04T04:29:22.435Z,12.19
2018-12-04T04:32:26.522Z,11.94
2018-12-04T04:35:37.229Z,11.64
2018-12-04T04:38:41.321Z,11.56
2018-12-04T04:41:45.452Z,11.58
2018-12-04T04:44:49.574Z,11.45
2018-12-04T04:47:53.696Z,11.33
2018-12-04T04:50:57.814Z,11.16
2018-12-04T04:54:01.918Z,11.29
2018-12-04T04:57:06.067Z,11.52
2018-12-04T05:00:10.250Z,11.59
2018-12-04T05:03:14.377Z,11.57
2018-12-04T05:06:18.480Z,11.58
2018-12-04T05:09:22.623Z,11.47
2018-12-04T05:12:26.707Z,11.43
2018-12-04T05:15:30.783Z,11.46
2018-12-04T05:18:34.955Z,11.42
2018-12-04T05:21:39.029Z,11.38
2018-12-04T05:24:43.096Z,11.41
2018-12-04T05:27:47.201Z,11.58
2018-12-04T05:30:51.286Z,11.80
2018-12-04T05:33:55.369Z,11.96
2018-12-04T05:36:59.440Z,12.07
2018-12-04T05:40:05.399Z,12.14
2018-12-04T05:43:09.530Z,12.17
2018-12-04T05:46:13.665Z,12.19
2018-12-04T05:49:17.851Z,12.14
2018-12-04T05:52:22.684Z,12.15
2018-12-04T05:55:26.726Z,12.04
2018-12-04T05:58:30.814Z,11.97
2018-12-04T06:01:34.901Z,11.96
2018-12-04T06:04:39.691Z,11.99
2018-12-04T06:07:43.769Z,12.07
2018-12-04T06:10:48.792Z,12.04
2018-12-04T06:13:52.894Z,12.06
2018-12-04T06:16:57.059Z,12.13
2018-12-04T06:20:01.358Z,12.17
2018-12-04T06:23:05.509Z,12.15
2018-12-04T06:26:09.605Z,12.08
2018-12-04T06:29:13.673Z,12.00
2018-12-04T06:32:17.827Z,11.87
2018-12-04T06:35:23.111Z,11.88
2018-12-04T06:38:27.301Z,11.81
2018-12-04T06:41:31.379Z,11.74
2018-12-04T06:44:35.514Z,11.73
2018-12-04T06:47:39.737Z,11.59
2018-12-04T06:50:43.818Z,11.53
2018-12-04T06:53:47.964Z,11.38
2018-12-04T06:56:52.085Z,11.35
2018-12-04T06:59:56.190Z,11.28
2018-12-04T07:03:00.285Z,11.33
2018-12-04T07:06:04.530Z,11.34
2018-12-04T07:09:08.750Z,11.33
2018-12-04T07:12:12.866Z,11.28
2018-12-04T07:15:17.089Z,11.23
2018-12-04T07:18:21.314Z,11.27
2018-12-04T07:21:25.384Z,11.34
2018-12-04T07:24:29.538Z,11.43
2018-12-04T07:27:33.602Z,11.48
2018-12-04T07:30:37.774Z,11.44
2018-12-04T07:33:41.888Z,11.52
2018-12-04T07:36:46.024Z,11.45
2018-12-04T07:39:50.139Z,11.32
2018-12-04T07:42:54.289Z,11.29
2018-12-04T07:45:58.454Z,11.39
2018-12-04T07:49:02.537Z,11.45
2018-12-04T07:52:06.657Z,11.54
2018-12-04T07:55:10.801Z,11.43
2018-12-04T07:58:15.772Z,11.40
2018-12-04T08:01:20.152Z,11.50
2018-12-04T08:04:24.258Z,11.55
2018-12-04T08:07:28.390Z,11.54
2018-12-04T08:10:32.535Z,11.51
2018-12-04T08:13:36.606Z,11.56
2018-12-04T08:16:40.742Z,11.64
2018-12-04T08:19:44.850Z,11.42
2018-12-04T08:22:49.014Z,11.42
2018-12-04T08:25:53.190Z,11.57
2018-12-04T08:28:57.276Z,11.75
2018-12-04T08:32:01.366Z,11.64
2018-12-04T08:35:06.877Z,11.59
2018-12-04T08:38:11.088Z,11.55
2018-12-04T08:41:15.171Z,11.71
2018-12-04T08:44:19.260Z,11.96
2018-12-04T08:47:23.345Z,12.05
2018-12-04T08:50:27.447Z,12.13
2018-12-04T08:53:31.557Z,12.11
2018-12-04T08:56:35.638Z,12.03
2018-12-04T08:59:39.727Z,12.05
2018-12-04T09:02:43.917Z,12.13
2018-12-04T09:05:47.970Z,12.18
2018-12-04T09:08:52.145Z,12.21
2018-12-04T09:15:09.873Z,12.21
2018-12-04T09:18:15.075Z,12.25
2018-12-04T09:21:19.240Z,12.20
2018-12-04T09:24:23.379Z,12.03
2018-12-04T09:27:27.560Z,12.09
2018-12-04T09:30:31.809Z,12.21
2018-12-04T09:33:36.922Z,12.29
2018-12-04T09:36:41.055Z,12.25
2018-12-04T09:39:45.149Z,12.27
2018-12-04T09:42:49.205Z,12.38
2018-12-04T09:45:53.308Z,12.54
2018-12-04T09:48:57.418Z,12.68
2018-12-04T09:52:01.550Z,12.80
2018-12-04T09:55:06.822Z,12.99
2018-12-04T09:58:10.885Z,13.08
2018-12-04T10:01:15.029Z,13.07
2018-12-04T10:04:19.116Z,13.00
2018-12-04T10:07:23.186Z,13.02
2018-12-04T10:10:27.268Z,13.03
2018-12-04T10:13:31.358Z,13.00
2018-12-04T10:16:35.442Z,12.95
2018-12-04T10:19:39.504Z,12.73
2018-12-04T10:22:43.593Z,12.56
2018-12-04T10:25:50.336Z,12.52
2018-12-04T10:28:54.426Z,12.54
2018-12-04T10:31:58.564Z,12.62
2018-12-04T10:35:02.849Z,12.70
2018-12-04T10:38:06.934Z,12.81
2018-12-04T10:41:11.070Z,12.86
2018-12-04T10:44:15.313Z,12.87
2018-12-04T10:47:19.404Z,12.82
2018-12-04T10:50:23.487Z,12.59
2018-12-04T10:53:27.606Z,12.27
2018-12-04T10:56:31.685Z,11.79
2018-12-04T10:59:35.765Z,11.83
2018-12-04T11:02:44.433Z,11.94
2018-12-04T11:05:48.621Z,12.07
2018-12-04T11:08:52.705Z,12.16
2018-12-04T11:11:56.767Z,12.26
2018-12-04T11:15:00.959Z,12.17
2018-12-04T11:18:05.203Z,12.24
2018-12-04T11:21:09.286Z,12.34
2018-12-04T11:24:13.352Z,12.34
2018-12-04T11:27:17.425Z,12.24
2018-12-04T11:30:21.650Z,12.23
2018-12-04T11:33:25.743Z,12.33
2018-12-04T11:36:29.989Z,12.40
2018-12-04T11:39:34.058Z,12.45
2018-12-04T11:42:38.207Z,12.49
2018-12-04T11:45:42.341Z,12.58
2018-12-04T11:48:46.418Z,12.68
2018-12-04T11:51:50.493Z,12.64
2018-12-04T11:54:54.567Z,12.58
2018-12-04T11:57:58.654Z,12.58
2018-12-04T12:01:03.190Z,12.69
2018-12-04T12:04:08.257Z,12.88
2018-12-04T12:07:13.417Z,12.97
2018-12-04T12:10:17.485Z,12.98
2018-12-04T12:13:21.569Z,12.99
2018-12-04T12:16:25.629Z,12.99
2018-12-04T12:19:29.717Z,12.89
2018-12-04T12:22:33.792Z,12.75
2018-12-04T12:25:37.867Z,12.67
2018-12-04T12:28:41.939Z,12.51
2018-12-04T12:31:46.013Z,12.40
2018-12-04T12:34:50.138Z,12.31
2018-12-04T12:37:54.233Z,12.20
2018-12-04T12:40:58.301Z,12.18
2018-12-04T12:44:02.458Z,12.15
2018-12-04T12:47:06.594Z,12.15
2018-12-04T12:50:10.697Z,12.19
2018-12-04T12:53:14.770Z,12.18
2018-12-04T12:56:18.939Z,12.22
2018-12-04T12:59:23.018Z,12.26
2018-12-04T13:02:27.089Z,12.31
2018-12-04T13:05:31.309Z,12.36
2018-12-04T13:08:35.413Z,12.37
2018-12-04T13:11:39.638Z,12.39
2018-12-04T13:14:43.742Z,12.40
2018-12-04T13:17:47.805Z,12.38
2018-12-04T13:20:51.885Z,12.46
2018-12-04T13:23:55.949Z,12.43
2018-12-04T13:27:00.049Z,12.40
2018-12-04T13:30:06.272Z,12.35
2018-12-04T13:33:10.349Z,12.28
2018-12-04T13:36:14.426Z,12.21
2018-12-04T13:39:18.570Z,12.13
2018-12-04T13:42:22.711Z,12.07
2018-12-04T13:45:26.851Z,12.13
2018-12-04T13:48:30.929Z,12.18
2018-12-04T13:51:35.160Z,12.24
2018-12-04T13:54:39.503Z,12.22
2018-12-04T13:57:43.639Z,12.25
2018-12-04T14:00:47.914Z,12.27
2018-12-04T14:03:52.038Z,12.29
2018-12-04T14:06:56.185Z,12.28
2018-12-04T14:10:00.253Z,12.30
2018-12-04T14:13:04.336Z,12.31
2018-12-04T14:16:08.530Z,12.29
2018-12-04T14:19:12.702Z,12.28
2018-12-04T14:22:16.798Z,12.26
2018-12-04T14:25:20.862Z,12.27
2018-12-04T14:28:25.087Z,12.18
2018-12-04T14:31:29.198Z,12.19
2018-12-04T14:34:33.335Z,12.24
2018-12-04T14:37:38.543Z,12.14
2018-12-04T14:40:42.717Z,12.02
2018-12-04T14:43:46.836Z,11.82
2018-12-04T14:46:50.946Z,11.59
2018-12-04T14:49:55.120Z,11.34
2018-12-04T14:52:59.223Z,11.25
2018-12-04T14:56:03.432Z,11.07
2018-12-04T14:59:07.692Z,11.03
2018-12-04T15:02:11.830Z,11.07
2018-12-04T15:05:16.137Z,11.09
2018-12-04T15:08:20.250Z,11.08
2018-12-04T15:11:24.335Z,11.09
2018-12-04T15:14:28.391Z,11.07
2018-12-04T15:17:32.569Z,11.07
2018-12-04T15:20:38.729Z,10.98
2018-12-04T15:23:42.975Z,10.91
2018-12-04T15:26:47.043Z,10.92
2018-12-04T15:29:51.110Z,10.91
2018-12-04T15:32:55.302Z,10.91
2018-12-04T15:35:59.418Z,10.90
2018-12-04T15:39:05.862Z,10.87
2018-12-04T15:42:11.176Z,10.87
2018-12-04T15:45:15.406Z,10.92
2018-12-04T15:48:19.578Z,11.03
2018-12-04T15:51:23.699Z,11.15
2018-12-04T15:54:27.863Z,11.28
2018-12-04T15:57:31.978Z,11.34
2018-12-04T16:00:36.118Z,11.33
2018-12-04T16:03:40.192Z,11.25
2018-12-04T16:06:44.267Z,11.06
2018-12-04T16:09:48.348Z,10.90
2018-12-04T16:12:52.424Z,10.83
2018-12-04T16:15:56.525Z,10.77
2018-12-04T16:19:00.734Z,10.80
2018-12-04T16:22:04.886Z,10.94
2018-12-04T16:25:09.109Z,11.08
2018-12-04T16:28:13.259Z,11.16
2018-12-04T16:31:17.385Z,11.24
2018-12-04T16:34:21.461Z,11.26
2018-12-04T16:37:25.546Z,11.12
2018-12-04T16:40:29.615Z,10.86
2018-12-04T16:43:33.695Z,10.68
2018-12-04T16:46:37.789Z,10.51
2018-12-04T16:49:41.890Z,10.46
2018-12-04T16:52:45.950Z,10.46
2018-12-04T16:55:50.022Z,10.45
2018-12-04T16:58:54.114Z,10.40
2018-12-04T17:01:58.206Z,10.42
2018-12-04T17:05:02.378Z,10.44
2018-12-04T17:08:06.447Z,10.45
2018-12-04T17:11:10.526Z,10.47
2018-12-04T17:14:14.609Z,10.47
2018-12-04T17:17:18.760Z,10.59
2018-12-04T17:20:22.839Z,10.75
2018-12-04T17:23:26.923Z,10.85
2018-12-04T17:26:31.001Z,10.90
2018-12-04T17:29:48.718Z,10.88
2018-12-04T17:36:12.198Z,11.14
2018-12-04T17:42:50.734Z,11.16
2018-12-04T17:45:54.798Z,11.18
2018-12-04T17:48:58.908Z,11.19
2018-12-04T17:52:03.028Z,11.23
2018-12-04T17:55:08.280Z,11.30
2018-12-04T17:58:13.329Z,11.29
2018-12-04T18:01:18.474Z,11.34
2018-12-04T18:04:22.567Z,11.41
2018-12-04T18:07:28.615Z,11.44
2018-12-04T18:10:32.714Z,11.43
2018-12-04T18:13:36.815Z,11.41
2018-12-04T18:16:42.883Z,11.29
2018-12-04T18:19:46.968Z,11.33
2018-12-04T18:22:51.080Z,11.41
2018-12-04T18:25:55.149Z,11.29
2018-12-04T18:29:00.218Z,11.22
2018-12-04T18:32:04.454Z,11.19
2018-12-04T18:35:08.614Z,11.22
2018-12-04T18:38:13.855Z,11.29
2018-12-04T18:41:18.044Z,11.28
2018-12-04T18:44:22.115Z,11.15
2018-12-04T18:47:47.681Z,11.23
2018-12-04T18:50:51.773Z,11.32
2018-12-04T18:53:55.874Z,11.26
2018-12-04T18:57:00.015Z,11.30
2018-12-04T19:00:08.205Z,11.29
2018-12-04T19:03:12.286Z,11.29
2018-12-04T19:06:16.511Z,11.32
2018-12-04T19:09:47.311Z,10.94
2018-12-04T19:12:51.389Z,10.78
2018-12-04T19:15:55.560Z,10.78
2018-12-04T19:18:59.643Z,10.69
2018-12-04T19:22:03.900Z,10.60
2018-12-04T19:25:08.272Z,10.59
2018-12-04T19:28:12.414Z,10.67
2018-12-04T19:34:50.811Z,10.82
2018-12-04T19:37:55.765Z,10.78
2018-12-04T19:41:00.014Z,10.69
2018-12-04T19:44:04.262Z,10.60
2018-12-04T19:47:08.414Z,10.58
2018-12-04T19:50:12.810Z,10.42
2018-12-04T19:53:16.917Z,10.34
2018-12-04T19:56:20.995Z,10.41
2018-12-04T19:59:47.554Z,10.42
2018-12-04T20:02:51.655Z,10.49
2018-12-04T20:05:55.776Z,10.59
2018-12-04T20:08:59.929Z,10.60
2018-12-04T20:12:04.281Z,10.61
2018-12-04T20:15:08.593Z,10.53
2018-12-04T20:18:12.692Z,10.28
2018-12-04T20:21:16.840Z,10.12
2018-12-04T20:24:21.002Z,10.13
2018-12-04T20:27:25.076Z,10.24
2018-12-04T20:30:29.270Z,10.30
2018-12-04T20:33:33.393Z,10.36
2018-12-04T20:36:37.460Z,10.22
2018-12-04T20:39:41.538Z,9.99
2018-12-04T20:42:45.605Z,10.01
2018-12-04T20:45:49.730Z,10.17
2018-12-04T20:48:53.935Z,10.30
2018-12-04T20:51:58.022Z,10.34
2018-12-04T20:55:08.514Z,10.49
2018-12-04T20:58:08.219Z,10.48
2018-12-04T21:01:12.328Z,10.52
2018-12-04T21:04:16.404Z,10.55
2018-12-04T21:07:20.488Z,10.49
2018-12-04T21:10:24.565Z,10.47
2018-12-04T21:13:28.663Z,10.47
2018-12-04T21:16:32.755Z,10.49
2018-12-04T21:19:36.919Z,10.41
2018-12-04T21:22:41.003Z,10.24
2018-12-04T21:25:46.037Z,10.44
2018-12-04T21:28:55.558Z,10.50
2018-12-04T21:32:05.167Z,10.47
2018-12-04T21:35:14.562Z,10.40
2018-12-04T21:38:24.038Z,10.39
2018-12-04T21:41:33.566Z,10.33
2018-12-04T21:44:43.157Z,10.43
2018-12-04T21:47:52.662Z,10.44
2018-12-04T21:50:56.721Z,10.39
2018-12-04T21:54:00.810Z,10.33
2018-12-04T21:57:04.933Z,10.33
2018-12-04T22:00:09.085Z,10.45
2018-12-04T22:03:13.189Z,10.52
2018-12-04T22:06:17.353Z,10.63
2018-12-04T22:09:21.428Z,10.59
2018-12-04T22:12:25.522Z,10.64
2018-12-04T22:15:29.618Z,10.65
2018-12-04T22:18:33.705Z,10.60
2018-12-04T22:21:48.574Z,10.67
2018-12-04T22:24:52.726Z,10.77
2018-12-04T22:31:13.815Z,10.99
2018-12-04T22:34:17.887Z,10.95
2018-12-04T22:37:22.057Z,10.81
2018-12-04T22:40:27.303Z,10.60
2018-12-04T22:43:31.374Z,10.63
2018-12-04T22:46:35.556Z,10.76
2018-12-04T22:49:48.284Z,10.75
2018-12-04T22:52:52.374Z,10.72
2018-12-04T22:55:56.469Z,10.58
2018-12-04T22:59:00.546Z,10.41
2018-12-04T23:02:04.858Z,10.36
2018-12-04T23:05:09.017Z,10.41
2018-12-04T23:08:13.102Z,10.47
2018-12-04T23:11:17.259Z,10.52
2018-12-04T23:14:21.338Z,10.41
2018-12-04T23:17:25.419Z,10.39
2018-12-04T23:20:29.501Z,10.46
2018-12-04T23:23:33.578Z,10.41
2018-12-04T23:26:37.665Z,10.28
2018-12-04T23:29:41.762Z,10.22
2018-12-04T23:32:45.858Z,10.13
2018-12-04T23:35:49.942Z,10.15
2018-12-04T23:38:54.028Z,10.26
2018-12-04T23:41:58.167Z,10.39
2018-12-04T23:45:02.261Z,10.57
2018-12-04T23:48:07.499Z,10.53
2018-12-04T23:51:11.578Z,10.35
2018-12-04T23:54:15.683Z,10.12
2018-12-04T23:57:19.754Z,10.00
